Time;durP1;ratioP1;P1;durP2;ratioP2;P2;SDS_P1;SDS_P2;PMS_P1;PMS_P2;Temp;Humidity;BMP_temperature;BMP_pressure;BME280_temperature;BME280_humidity;BME280_pressure;Samples;Min_cycle;Max_cycle;Signal;HPM_P1;HPM_P2
2023/05/26 00:00:58;;;;;;;49.60;27.23;;;9.90;1.00;;;;;;5009544;28;20050;-59
2023/05/26 00:03:27;;;;;;;45.33;27.67;;;10.00;15.90;;;;;;5023120;28;20034;-59
2023/05/26 00:05:54;;;;;;;42.97;27.48;;;9.90;46.90;;;;;;5028688;28;20492;-59
2023/05/26 00:08:21;;;;;;;49.25;27.13;;;9.90;44.20;;;;;;5029483;28;20415;-60
2023/05/26 00:10:47;;;;;;;49.95;27.20;;;9.90;66.50;;;;;;5029307;28;20054;-60
2023/05/26 00:13:12;;;;;;;45.83;24.98;;;10.50;69.20;;;;;;5028832;28;20558;-60
2023/05/26 00:15:38;;;;;;;51.40;29.05;;;10.00;52.40;;;;;;5028879;28;20128;-59
2023/05/26 00:18:05;;;;;;;46.20;28.77;;;10.00;37.60;;;;;;5029039;28;20509;-59
2023/05/26 00:20:31;;;;;;;50.63;29.30;;;10.00;1.00;;;;;;5029138;28;20041;-59
2023/05/26 00:22:56;;;;;;;46.15;26.48;;;9.90;1.00;;;;;;5029319;28;20128;-59
2023/05/26 00:25:22;;;;;;;50.97;28.63;;;9.80;1.00;;;;;;5028993;28;20487;-59
2023/05/26 00:27:48;;;;;;;42.60;28.58;;;9.80;1.00;;;;;;5029263;28;20060;-59
2023/05/26 00:30:14;;;;;;;48.42;26.77;;;9.90;11.30;;;;;;5029108;28;20037;-59
2023/05/26 00:32:39;;;;;;;49.67;27.70;;;9.70;49.80;;;;;;5029681;28;20476;-59
2023/05/26 00:35:06;;;;;;;49.50;28.05;;;9.70;75.60;;;;;;5032460;28;20091;-60
2023/05/26 00:37:32;;;;;;;47.97;27.45;;;9.70;91.10;;;;;;5033248;28;20045;-59
2023/05/26 00:39:58;;;;;;;48.35;26.95;;;9.70;99.90;;;;;;5032034;28;20049;-60
2023/05/26 00:42:24;;;;;;;44.03;27.38;;;9.70;99.90;;;;;;5031881;28;20518;-59
2023/05/26 00:44:52;;;;;;;47.10;28.27;;;10.10;99.90;;;;;;5032742;28;20394;-60
2023/05/26 00:47:18;;;;;;;49.55;25.77;;;10.20;99.90;;;;;;5032469;28;20081;-59
2023/05/26 00:49:45;;;;;;;46.30;26.52;;;9.90;99.90;;;;;;5032303;28;20093;-60
2023/05/26 00:52:11;;;;;;;51.50;25.77;;;9.90;99.90;;;;;;5032738;28;20138;-60
2023/05/26 00:54:41;;;;;;;45.60;26.10;;;9.90;99.90;;;;;;5031436;28;20044;-60
2023/05/26 00:57:08;;;;;;;44.30;25.90;;;9.90;78.30;;;;;;5032534;28;20072;-59
2023/05/26 00:59:34;;;;;;;42.22;25.98;;;9.90;1.00;;;;;;5030990;28;20071;-60
2023/05/26 01:02:00;;;;;;;46.15;26.25;;;9.80;1.00;;;;;;5032456;28;20053;-59
2023/05/26 01:04:27;;;;;;;53.90;28.30;;;9.80;1.00;;;;;;5032521;28;20041;-60
2023/05/26 01:06:53;;;;;;;48.65;28.27;;;9.70;1.00;;;;;;5032686;28;20552;-60
2023/05/26 01:09:19;;;;;;;49.53;27.70;;;9.60;1.00;;;;;;5030567;28;20063;-60
2023/05/26 01:11:53;;;;;;;47.75;28.00;;;9.60;1.00;;;;;;5031711;28;20081;-60
2023/05/26 01:14:40;;;;;;;51.15;26.77;;;9.50;1.00;;;;;;5032318;28;20056;-60
2023/05/26 01:17:32;;;;;;;41.58;22.33;;;9.50;1.00;;;;;;5032154;28;20041;-59
2023/05/26 01:20:22;;;;;;;47.58;26.00;;;9.60;1.00;;;;;;5031275;28;20403;-60
2023/05/26 01:22:50;;;;;;;45.42;23.10;;;9.60;1.00;;;;;;5012992;28;20549;-59
2023/05/26 01:25:37;;;;;;;43.83;25.20;;;9.70;1.00;;;;;;5012395;28;20464;-59
2023/05/26 01:28:14;;;;;;;51.40;27.15;;;9.70;1.00;;;;;;5021739;28;20041;-60
2023/05/26 01:30:42;;;;;;;47.72;27.52;;;9.70;99.90;;;;;;5031230;28;20095;-59
2023/05/26 01:33:07;;;;;;;48.65;27.30;;;9.70;99.90;;;;;;5032140;28;20116;-60
2023/05/26 01:35:33;;;;;;;53.28;28.13;;;9.60;99.90;;;;;;5031824;28;20183;-60
2023/05/26 01:38:00;;;;;;;52.55;27.10;;;9.60;99.90;;;;;;5029474;28;20128;-60
2023/05/26 01:40:26;;;;;;;49.95;26.75;;;9.60;99.90;;;;;;5025997;28;20506;-59
2023/05/26 01:43:01;;;;;;;49.40;27.20;;;9.50;99.90;;;;;;5031828;28;20048;-60
2023/05/26 01:45:34;;;;;;;50.47;26.90;;;9.70;99.90;;;;;;5030426;28;20068;-59
2023/05/26 01:48:02;;;;;;;49.65;27.73;;;9.60;99.90;;;;;;5029554;28;20423;-60
2023/05/26 01:50:34;;;;;;;48.63;28.25;;;9.60;99.90;;;;;;5031223;28;20049;-60
2023/05/26 01:53:05;;;;;;;43.80;28.33;;;9.50;99.90;;;;;;5031712;28;20095;-60
2023/05/26 01:55:31;;;;;;;47.70;27.48;;;10.10;99.90;;;;;;5031683;28;20049;-60
2023/05/26 01:57:57;;;;;;;48.33;27.20;;;9.40;99.90;;;;;;5030804;28;20041;-60
2023/05/26 02:00:26;;;;;;;49.63;26.63;;;9.40;99.90;;;;;;5030916;28;20033;-60
2023/05/26 02:02:52;;;;;;;43.20;27.42;;;9.20;99.90;;;;;;5031030;28;20045;-60
2023/05/26 02:05:18;;;;;;;46.67;28.02;;;9.20;99.90;;;;;;5031314;28;20041;-60
2023/05/26 02:07:45;;;;;;;46.72;25.73;;;9.20;99.90;;;;;;5030913;28;20521;-60
2023/05/26 02:10:11;;;;;;;45.22;27.08;;;9.20;99.90;;;;;;5030690;28;20120;-60
2023/05/26 02:12:36;;;;;;;44.83;26.70;;;9.10;99.90;;;;;;5031144;28;20458;-60
2023/05/26 02:15:02;;;;;;;41.28;25.08;;;9.10;99.90;;;;;;5031258;28;20049;-59
2023/05/26 02:17:28;;;;;;;42.53;25.63;;;9.00;99.90;;;;;;5030885;28;20045;-60
2023/05/26 02:19:54;;;;;;;42.90;24.27;;;9.60;1.00;;;;;;5030236;28;20063;-59
2023/05/26 02:22:19;;;;;;;50.60;26.70;;;9.10;99.90;;;;;;5031223;28;20044;-60
2023/05/26 02:24:45;;;;;;;40.80;24.58;;;9.20;99.90;;;;;;5031108;28;20495;-59
2023/05/26 02:27:10;;;;;;;41.70;24.30;;;9.20;1.00;;;;;;5031007;28;20038;-60
2023/05/26 02:29:36;;;;;;;40.75;24.27;;;9.70;1.00;;;;;;5030125;28;20439;-60
2023/05/26 02:32:02;;;;;;;46.70;27.02;;;9.50;79.60;;;;;;5031224;28;20037;-60
2023/05/26 02:34:27;;;;;;;38.85;24.85;;;9.40;99.90;;;;;;5029773;28;20037;-60
2023/05/26 02:36:55;;;;;;;50.67;26.30;;;9.50;99.90;;;;;;5030653;28;20059;-60
2023/05/26 02:39:21;;;;;;;44.08;26.77;;;9.90;99.90;;;;;;5030037;28;20101;-60
2023/05/26 02:41:47;;;;;;;46.03;26.38;;;9.60;99.90;;;;;;5030499;28;20049;-60
2023/05/26 02:44:13;;;;;;;45.33;26.60;;;9.60;99.90;;;;;;5030658;28;20041;-60
2023/05/26 02:46:39;;;;;;;48.35;25.92;;;9.60;99.90;;;;;;5030536;28;20049;-59
2023/05/26 02:49:05;;;;;;;48.40;25.42;;;9.70;99.90;;;;;;5029879;28;20107;-59
2023/05/26 02:51:32;;;;;;;42.97;25.25;;;9.70;99.90;;;;;;5029613;28;20042;-60
2023/05/26 02:53:58;;;;;;;45.65;24.42;;;9.70;99.90;;;;;;5030690;28;20426;-59
2023/05/26 02:56:23;;;;;;;44.80;26.17;;;9.80;99.90;;;;;;5030123;28;20056;-60
2023/05/26 02:58:49;;;;;;;44.15;25.52;;;9.80;99.90;;;;;;5029997;28;20077;-59
2023/05/26 03:01:16;;;;;;;42.10;25.38;;;9.70;83.50;;;;;;5030259;28;20049;-59
2023/05/26 03:03:41;;;;;;;46.20;26.58;;;9.70;25.10;;;;;;5030364;28;20091;-60
2023/05/26 03:06:07;;;;;;;44.00;24.67;;;9.60;12.30;;;;;;5030135;28;20045;-60
2023/05/26 03:08:34;;;;;;;44.15;25.40;;;9.70;1.00;;;;;;5028433;28;20085;-59
2023/05/26 03:11:00;;;;;;;48.53;26.05;;;9.70;1.00;;;;;;5025783;28;20064;-60
2023/05/26 03:13:25;;;;;;;36.95;25.50;;;9.70;1.00;;;;;;5010485;28;20046;-59
2023/05/26 03:15:52;;;;;;;46.67;25.50;;;9.60;1.00;;;;;;5008475;28;20045;-60
2023/05/26 03:18:17;;;;;;;37.70;25.90;;;9.60;1.00;;;;;;5022742;28;20033;-59
2023/05/26 03:20:46;;;;;;;47.95;27.88;;;9.60;99.90;;;;;;5028313;28;20045;-60
2023/05/26 03:23:14;;;;;;;44.88;28.23;;;9.40;99.90;;;;;;5030033;28;20081;-60
2023/05/26 03:25:40;;;;;;;43.83;28.20;;;9.30;99.90;;;;;;5029498;28;20120;-60
2023/05/26 03:28:06;;;;;;;45.13;27.02;;;9.30;99.90;;;;;;5028620;28;20033;-59
2023/05/26 03:30:32;;;;;;;50.85;28.38;;;9.20;1.00;;;;;;5028629;28;20048;-60
2023/05/26 03:32:57;;;;;;;51.70;27.83;;;9.20;4.80;;;;;;5030188;28;20049;-59
2023/05/26 03:35:23;;;;;;;44.90;27.80;;;9.30;99.90;;;;;;5030017;28;20042;-60
2023/05/26 03:37:49;;;;;;;51.25;28.80;;;9.30;99.90;;;;;;5029288;28;20187;-60
2023/05/26 03:40:14;;;;;;;47.75;30.83;;;9.30;15.10;;;;;;5029594;28;20037;-60
2023/05/26 03:42:40;;;;;;;42.67;28.60;;;9.40;85.40;;;;;;5029923;28;20083;-59
2023/05/26 03:45:06;;;;;;;47.88;28.58;;;9.40;99.90;;;;;;5029705;28;20037;-60
2023/05/26 03:47:32;;;;;;;52.60;29.00;;;9.40;99.90;;;;;;5028944;28;20060;-60
2023/05/26 03:49:57;;;;;;;49.28;30.02;;;9.30;99.90;;;;;;5028923;28;20052;-60
2023/05/26 03:52:24;;;;;;;50.20;30.52;;;9.30;99.90;;;;;;5029895;28;20033;-59
2023/05/26 03:54:49;;;;;;;47.63;28.45;;;9.50;1.00;;;;;;5029913;28;20041;-60
2023/05/26 03:57:15;;;;;;;50.67;29.20;;;9.50;1.00;;;;;;5028595;28;20483;-60
2023/05/26 03:59:40;;;;;;;56.40;30.40;;;9.50;1.00;;;;;;5029165;28;20136;-60
2023/05/26 04:02:06;;;;;;;45.15;28.13;;;9.40;49.30;;;;;;5029960;28;20095;-60
2023/05/26 04:04:32;;;;;;;45.28;27.45;;;9.60;99.90;;;;;;5029401;28;20105;-60
2023/05/26 04:06:58;;;;;;;50.95;29.70;;;9.70;99.90;;;;;;5029656;28;20072;-60
2023/05/26 04:09:24;;;;;;;50.95;28.90;;;9.50;1.00;;;;;;5035429;28;20517;-60
2023/05/26 04:11:49;;;;;;;54.45;29.73;;;9.50;1.00;;;;;;5035785;28;20483;-60
2023/05/26 04:14:15;;;;;;;45.22;28.60;;;9.50;1.00;;;;;;5035877;28;20503;-60
2023/05/26 04:16:41;;;;;;;52.17;28.55;;;9.60;99.90;;;;;;5036222;28;20053;-60
2023/05/26 04:19:06;;;;;;;51.33;29.13;;;9.70;99.90;;;;;;5035509;28;20041;-60
2023/05/26 04:21:32;;;;;;;54.88;27.77;;;9.90;99.90;;;;;;5035752;28;20503;-60
2023/05/26 04:23:57;;;;;;;54.97;26.25;;;9.90;99.90;;;;;;5035880;28;20427;-60
2023/05/26 04:26:24;;;;;;;47.63;24.83;;;10.00;99.90;;;;;;5035723;28;20069;-60
2023/05/26 04:28:52;;;;;;;51.75;26.13;;;10.10;99.90;;;;;;5035115;28;20455;-60
2023/05/26 04:31:17;;;;;;;43.58;26.77;;;10.20;99.90;;;;;;5035745;28;20461;-60
2023/05/26 04:33:44;;;;;;;45.45;24.92;;;10.30;99.90;;;;;;5035447;28;20137;-60
2023/05/26 04:36:10;;;;;;;46.80;28.40;;;10.40;99.90;;;;;;5035906;28;20407;-60
2023/05/26 04:38:37;;;;;;;44.90;26.77;;;10.40;29.20;;;;;;5035221;28;20040;-60
2023/05/26 04:41:07;;;;;;;44.17;24.25;;;10.50;1.00;;;;;;5035849;28;20094;-60
2023/05/26 04:43:35;;;;;;;44.83;26.88;;;10.60;99.90;;;;;;5035556;28;20041;-60
2023/05/26 04:46:02;;;;;;;52.55;26.13;;;10.60;99.90;;;;;;5035384;28;20033;-60
2023/05/26 04:48:28;;;;;;;45.58;24.63;;;10.70;99.90;;;;;;5034407;28;20446;-60
2023/05/26 04:50:54;;;;;;;40.15;24.40;;;10.80;30.00;;;;;;5034039;28;20467;-60
2023/05/26 04:53:20;;;;;;;47.33;26.50;;;10.80;1.00;;;;;;5035142;28;20164;-60
2023/05/26 04:55:47;;;;;;;50.20;26.58;;;10.90;1.00;;;;;;5035478;28;20045;-60
2023/05/26 04:58:13;;;;;;;53.28;26.58;;;11.00;99.90;;;;;;5035224;28;20057;-60
2023/05/26 05:00:38;;;;;;;49.88;26.45;;;11.10;99.90;;;;;;5035206;28;20085;-60
2023/05/26 05:03:04;;;;;;;52.58;26.20;;;11.10;72.50;;;;;;5035429;28;20065;-60
2023/05/26 05:05:30;;;;;;;44.28;26.33;;;11.20;1.00;;;;;;5035085;28;20044;-60
2023/05/26 05:07:56;;;;;;;42.10;25.77;;;11.20;1.00;;;;;;5035054;28;20396;-60
2023/05/26 05:10:22;;;;;;;49.00;26.38;;;11.20;99.90;;;;;;5031340;28;20041;-60
2023/05/26 05:12:47;;;;;;;45.10;24.70;;;11.40;99.90;;;;;;5035392;28;20049;-60
2023/05/26 05:15:13;;;;;;;41.00;24.95;;;11.50;29.10;;;;;;5035010;28;20450;-60
2023/05/26 05:17:39;;;;;;;47.22;24.00;;;11.50;1.00;;;;;;5034229;28;20105;-60
2023/05/26 05:20:06;;;;;;;48.28;23.95;;;11.60;99.90;;;;;;5027993;28;20072;-61
2023/05/26 05:22:32;;;;;;;45.45;24.85;;;11.70;99.90;;;;;;5041533;28;20029;-60
2023/05/26 05:24:58;;;;;;;49.20;25.55;;;11.70;1.00;;;;;;5028771;28;20029;-60
2023/05/26 05:27:23;;;;;;;40.20;25.40;;;11.80;1.00;;;;;;5025635;28;20065;-60
2023/05/26 05:29:49;;;;;;;46.72;25.35;;;11.80;99.90;;;;;;5029942;28;20083;-60
2023/05/26 05:32:15;;;;;;;48.40;27.02;;;11.80;99.90;;;;;;5028586;28;20513;-60
2023/05/26 05:34:40;;;;;;;42.42;24.13;;;11.90;99.90;;;;;;5030929;28;20071;-61
2023/05/26 05:37:06;;;;;;;43.55;21.80;;;11.90;99.90;;;;;;5030356;28;20044;-60
2023/05/26 05:39:32;;;;;;;35.90;20.00;;;11.90;1.00;;;;;;5028495;28;20052;-60
2023/05/26 05:41:57;;;;;;;42.28;21.25;;;12.00;99.90;;;;;;5029550;28;20041;-61
2023/05/26 05:44:23;;;;;;;47.35;26.02;;;12.10;99.90;;;;;;5031040;28;20073;-60
2023/05/26 05:46:48;;;;;;;37.92;21.00;;;12.20;99.90;;;;;;5029454;28;20061;-61
2023/05/26 05:49:14;;;;;;;38.72;20.90;;;12.20;99.90;;;;;;5027576;28;20050;-61
2023/05/26 05:51:39;;;;;;;44.17;23.15;;;12.30;1.00;;;;;;5027444;28;20048;-60
2023/05/26 05:54:05;;;;;;;46.17;22.88;;;12.30;1.00;;;;;;5029159;28;20049;-60
2023/05/26 05:56:30;;;;;;;41.00;20.48;;;12.40;1.00;;;;;;5031111;28;20128;-60
2023/05/26 05:58:56;;;;;;;37.97;20.83;;;12.50;1.00;;;;;;5029538;28;20403;-60
2023/05/26 06:01:22;;;;;;;45.50;22.27;;;12.50;99.90;;;;;;5027840;28;20085;-60
2023/05/26 06:03:47;;;;;;;38.35;20.88;;;12.60;99.90;;;;;;5030132;28;20554;-60
2023/05/26 06:06:13;;;;;;;42.10;19.88;;;12.60;99.90;;;;;;5030357;28;20061;-60
2023/05/26 06:08:38;;;;;;;40.85;22.10;;;12.50;99.90;;;;;;5027541;28;20119;-60
2023/05/26 06:11:04;;;;;;;35.95;19.98;;;12.50;99.90;;;;;;5030090;28;20056;-60
2023/05/26 06:13:30;;;;;;;42.08;21.77;;;12.60;99.90;;;;;;5028242;28;20034;-60
2023/05/26 06:15:56;;;;;;;37.97;21.10;;;12.60;71.20;;;;;;5023581;28;20861;-60
2023/05/26 06:18:21;;;;;;;38.88;21.00;;;12.70;29.70;;;;;;5030600;28;20053;-60
2023/05/26 06:20:47;;;;;;;44.13;22.92;;;12.80;15.50;;;;;;5028938;28;20620;-60
2023/05/26 06:23:13;;;;;;;44.35;20.10;;;13.50;10.80;;;;;;5023926;28;20410;-60
2023/05/26 06:25:38;;;;;;;43.33;21.02;;;13.10;1.00;;;;;;5018484;28;20377;-60
2023/05/26 06:28:04;;;;;;;36.78;19.98;;;13.20;1.00;;;;;;5029953;28;20464;-61
2023/05/26 06:30:30;;;;;;;48.50;24.70;;;13.90;1.00;;;;;;5011201;28;20057;-60
2023/05/26 06:32:55;;;;;;;36.25;20.35;;;13.30;1.00;;;;;;5027982;28;20051;-60
2023/05/26 06:35:23;;;;;;;40.05;20.88;;;13.40;1.00;;;;;;5030399;28;20380;-61
2023/05/26 06:37:49;;;;;;;37.47;15.73;;;13.40;1.00;;;;;;5026606;28;20080;-60
2023/05/26 06:40:14;;;;;;;32.85;18.98;;;13.50;99.90;;;;;;5027740;28;20073;-60
2023/05/26 06:42:41;;;;;;;37.58;20.90;;;13.50;99.90;;;;;;5029027;28;20087;-61
2023/05/26 06:45:07;;;;;;;34.38;18.45;;;13.60;99.90;;;;;;5027360;28;20041;-61
2023/05/26 06:47:33;;;;;;;40.03;19.77;;;13.60;99.90;;;;;;5029618;28;20723;-60
2023/05/26 06:49:58;;;;;;;35.95;18.08;;;13.70;99.90;;;;;;5029816;28;20112;-60
2023/05/26 06:52:24;;;;;;;33.80;19.02;;;13.80;99.90;;;;;;5028918;28;20046;-60
2023/05/26 06:54:49;;;;;;;41.28;20.17;;;13.90;99.90;;;;;;5028307;28;20045;-61
2023/05/26 06:57:16;;;;;;;42.72;20.67;;;14.10;99.90;;;;;;5027425;28;20029;-60
2023/05/26 06:59:42;;;;;;;36.95;19.30;;;14.10;99.90;;;;;;5027116;28;20380;-60
2023/05/26 07:02:08;;;;;;;37.30;20.25;;;14.30;99.90;;;;;;5027246;28;20407;-60
2023/05/26 07:04:33;;;;;;;36.45;19.58;;;14.40;99.90;;;;;;5029768;28;20055;-61
2023/05/26 07:06:59;;;;;;;38.10;20.08;;;14.40;99.90;;;;;;5030004;28;20064;-60
2023/05/26 07:09:24;;;;;;;36.30;19.00;;;14.50;99.90;;;;;;5029123;28;20564;-60
2023/05/26 07:11:50;;;;;;;36.33;20.08;;;14.70;99.90;;;;;;5019753;28;20049;-61
2023/05/26 07:14:16;;;;;;;34.78;20.17;;;14.70;99.90;;;;;;5016256;28;20123;-61
2023/05/26 07:16:41;;;;;;;36.38;19.52;;;14.80;99.90;;;;;;5027099;28;21149;-60
2023/05/26 07:19:07;;;;;;;29.38;18.27;;;14.70;98.60;;;;;;5026405;28;20041;-60
2023/05/26 07:21:32;;;;;;;40.50;19.10;;;14.80;91.20;;;;;;5029225;28;20056;-67
2023/05/26 07:23:58;;;;;;;31.98;11.35;;;14.80;74.30;;;;;;5027825;28;20491;-66
2023/05/26 07:26:24;;;;;;;24.48;13.52;;;14.80;14.20;;;;;;5023178;28;20037;-66
2023/05/26 07:28:51;;;;;;;27.33;11.27;;;14.80;1.00;;;;;;5026958;28;20095;-67
2023/05/26 07:31:18;;;;;;;26.92;13.80;;;14.90;1.00;;;;;;5028173;28;20041;-67
2023/05/26 07:33:43;;;;;;;30.52;11.32;;;15.10;1.00;;;;;;5023385;28;20120;-67
2023/05/26 07:36:09;;;;;;;32.05;12.77;;;15.10;1.00;;;;;;5019922;28;20555;-67
2023/05/26 07:38:34;;;;;;;28.73;10.77;;;15.10;1.00;;;;;;5020304;28;20034;-67
2023/05/26 07:41:00;;;;;;;25.27;7.22;;;15.10;1.00;;;;;;5026274;28;20042;-65
2023/05/26 07:43:26;;;;;;;26.27;8.77;;;15.20;1.00;;;;;;5023683;28;20038;-66
2023/05/26 07:45:51;;;;;;;25.67;6.72;;;15.20;1.00;;;;;;5026782;28;20039;-65
2023/05/26 07:48:17;;;;;;;28.33;6.72;;;15.30;1.00;;;;;;5025952;28;20049;-65
2023/05/26 07:50:43;;;;;;;23.45;6.75;;;15.40;1.00;;;;;;5027752;28;20120;-66
2023/05/26 07:53:08;;;;;;;23.80;6.40;;;15.30;99.90;;;;;;5026667;28;20037;-66
2023/05/26 07:55:34;;;;;;;25.60;6.22;;;15.20;99.90;;;;;;5006870;28;20041;-65
2023/05/26 07:58:00;;;;;;;26.38;7.15;;;15.20;99.90;;;;;;5028904;28;20051;-66
2023/05/26 08:00:25;;;;;;;23.75;6.43;;;15.40;99.90;;;;;;5028770;28;20049;-66
2023/05/26 08:02:52;;;;;;;24.52;6.90;;;15.60;99.90;;;;;;5026608;28;20571;-65
2023/05/26 08:05:17;;;;;;;19.80;6.07;;;15.50;99.90;;;;;;5024158;28;20080;-66
2023/05/26 08:07:43;;;;;;;21.33;5.90;;;15.60;99.90;;;;;;5023008;28;20471;-65
2023/05/26 08:10:09;;;;;;;24.52;6.82;;;15.70;99.90;;;;;;5024864;28;20076;-65
2023/05/26 08:12:35;;;;;;;24.58;7.05;;;15.70;99.90;;;;;;5025099;28;20522;-66
2023/05/26 08:15:04;;;;;;;25.40;6.32;;;15.60;99.90;;;;;;5027939;28;20030;-65
2023/05/26 08:17:29;;;;;;;22.67;6.57;;;15.60;99.90;;;;;;5022153;28;20034;-67
2023/05/26 08:19:55;;;;;;;20.80;5.72;;;15.70;99.90;;;;;;5027869;28;20036;-67
2023/05/26 08:22:20;;;;;;;20.65;6.15;;;15.80;99.90;;;;;;5028070;28;20076;-67
2023/05/26 08:24:46;;;;;;;20.00;5.53;;;15.90;99.90;;;;;;5028929;28;20077;-66
2023/05/26 08:27:11;;;;;;;19.70;6.38;;;15.90;99.90;;;;;;5027395;28;20037;-66
2023/05/26 08:29:37;;;;;;;23.80;6.68;;;16.00;99.90;;;;;;5029035;28;20038;-67
2023/05/26 08:32:03;;;;;;;18.38;6.18;;;16.00;99.90;;;;;;5028812;28;20042;-67
2023/05/26 08:34:28;;;;;;;24.00;6.00;;;16.00;99.90;;;;;;5028230;28;20079;-67
2023/05/26 08:36:54;;;;;;;18.52;5.90;;;16.00;99.90;;;;;;5025900;28;20046;-67
2023/05/26 08:39:19;;;;;;;22.50;5.75;;;16.00;99.90;;;;;;5027716;28;20049;-67
2023/05/26 08:41:55;;;;;;;23.20;6.10;;;16.00;99.90;;;;;;5027452;28;20467;-67
2023/05/26 08:44:21;;;;;;;22.70;6.70;;;16.40;99.90;;;;;;5028268;28;20060;-67
2023/05/26 08:46:55;;;;;;;23.30;6.45;;;16.20;99.90;;;;;;5027923;28;20385;-66
2023/05/26 08:49:21;;;;;;;23.60;6.22;;;16.20;99.90;;;;;;5028683;28;20127;-66
2023/05/26 08:51:55;;;;;;;25.30;6.22;;;16.10;99.90;;;;;;5028353;28;20081;-67
2023/05/26 08:54:21;;;;;;;26.08;6.80;;;16.00;99.90;;;;;;5030091;28;20462;-67
2023/05/26 08:56:48;;;;;;;22.25;5.90;;;16.10;99.90;;;;;;5031969;28;20149;-66
2023/05/26 08:59:16;;;;;;;19.92;5.53;;;16.10;99.90;;;;;;5032165;28;20041;-67
2023/05/26 09:01:42;;;;;;;20.20;5.68;;;16.20;99.90;;;;;;5031160;28;20050;-67
2023/05/26 09:04:08;;;;;;;20.52;5.40;;;16.30;99.90;;;;;;5018119;28;20040;-67
2023/05/26 09:06:35;;;;;;;19.15;5.75;;;16.30;99.90;;;;;;5023694;28;20116;-66
2023/05/26 09:09:00;;;;;;;18.75;5.50;;;16.40;99.90;;;;;;5031229;28;20105;-67
2023/05/26 09:11:30;;;;;;;20.92;5.75;;;16.30;99.90;;;;;;5027485;28;20132;-67
2023/05/26 09:13:57;;;;;;;25.80;6.53;;;16.40;99.90;;;;;;5031867;28;20052;-66
2023/05/26 09:16:24;;;;;;;19.67;6.10;;;16.30;99.90;;;;;;5031780;28;20049;-66
2023/05/26 09:18:55;;;;;;;22.13;6.22;;;16.50;99.90;;;;;;5030605;28;20041;-67
2023/05/26 09:21:20;;;;;;;18.88;5.65;;;16.60;99.90;;;;;;5026321;28;20034;-67
2023/05/26 09:23:54;;;;;;;20.45;6.30;;;16.40;99.90;;;;;;5046171;28;20044;-66
2023/05/26 09:26:32;;;;;;;23.80;6.15;;;16.40;99.90;;;;;;5046332;28;20037;-66
2023/05/26 09:28:59;;;;;;;22.58;5.80;;;16.50;99.90;;;;;;5030647;28;20037;-66
2023/05/26 09:31:25;;;;;;;22.23;5.72;;;16.50;99.90;;;;;;5031076;28;20831;-66
2023/05/26 09:33:51;;;;;;;23.55;6.35;;;16.30;99.90;;;;;;5030733;28;20055;-66
2023/05/26 09:36:21;;;;;;;26.88;6.82;;;16.20;99.90;;;;;;5022926;28;20034;-66
2023/05/26 09:38:47;;;;;;;21.98;6.30;;;16.20;99.90;;;;;;5020794;28;20071;-66
2023/05/26 09:41:18;;;;;;;27.27;5.68;;;16.20;99.90;;;;;;5030583;28;20049;-66
2023/05/26 09:43:43;;;;;;;21.42;5.80;;;16.20;99.90;;;;;;5031332;28;20051;-67
2023/05/26 09:46:23;;;;;;;19.85;5.50;;;16.20;99.90;;;;;;5029439;28;20411;-66
2023/05/26 09:48:51;;;;;;;21.52;6.10;;;16.30;99.90;;;;;;5031266;28;20041;-67
2023/05/26 09:51:19;;;;;;;21.65;6.47;;;16.30;99.90;;;;;;5030376;28;20041;-66
2023/05/26 09:53:45;;;;;;;20.45;5.93;;;16.50;99.90;;;;;;5031176;28;20033;-67
2023/05/26 09:56:11;;;;;;;18.98;5.38;;;16.80;99.90;;;;;;5030887;28;20498;-67
2023/05/26 09:58:39;;;;;;;25.17;6.78;;;16.80;99.90;;;;;;5031824;28;20063;-66
2023/05/26 10:01:06;;;;;;;22.90;6.03;;;16.80;98.90;;;;;;5031315;28;20052;-66
2023/05/26 10:03:32;;;;;;;26.10;7.05;;;16.80;99.90;;;;;;5031398;28;20096;-66
2023/05/26 10:05:59;;;;;;;21.50;5.57;;;16.70;99.90;;;;;;5026393;28;20046;-66
2023/05/26 10:08:28;;;;;;;21.38;5.45;;;16.70;99.90;;;;;;5030825;28;20033;-66
2023/05/26 10:10:54;;;;;;;19.45;5.43;;;16.70;99.90;;;;;;5029564;28;20088;-67
2023/05/26 10:13:20;;;;;;;18.38;6.05;;;16.70;99.90;;;;;;5031065;28;20132;-66
2023/05/26 10:15:47;;;;;;;24.45;6.10;;;16.60;99.90;;;;;;5029647;28;20119;-66
2023/05/26 10:18:13;;;;;;;21.25;6.28;;;16.60;98.20;;;;;;5030835;28;20049;-67
2023/05/26 10:20:43;;;;;;;22.83;6.60;;;16.40;99.00;;;;;;5029530;28;20073;-67
2023/05/26 10:23:24;;;;;;;23.65;6.57;;;16.50;99.90;;;;;;5029898;28;20567;-67
2023/05/26 10:26:04;;;;;;;21.65;5.88;;;16.50;99.90;;;;;;5029186;28;20462;-67
2023/05/26 10:28:46;;;;;;;25.65;6.78;;;16.80;99.90;;;;;;5030452;28;20091;-66
2023/05/26 10:31:27;;;;;;;20.80;6.05;;;16.80;99.90;;;;;;5027515;28;20049;-66
2023/05/26 10:33:52;;;;;;;20.17;6.10;;;16.40;99.90;;;;;;5024905;28;20049;-59
2023/05/26 10:36:18;;;;;;;23.23;6.40;;;16.50;99.90;;;;;;5026496;28;20491;-60
2023/05/26 10:38:48;;;;;;;23.60;6.03;;;16.40;99.90;;;;;;5027283;28;20511;-60
2023/05/26 10:41:46;;;;;;;28.23;7.00;;;16.50;99.90;;;;;;5029081;28;20479;-60
2023/05/26 10:44:39;;;;;;;21.40;5.60;;;16.60;99.90;;;;;;5021138;28;20044;-60
2023/05/26 10:47:04;;;;;;;22.10;5.57;;;16.70;99.90;;;;;;5025824;28;20057;-60
2023/05/26 10:49:36;;;;;;;20.95;6.15;;;16.60;79.80;;;;;;5026446;28;20056;-60
2023/05/26 10:52:11;;;;;;;23.90;6.63;;;16.50;85.80;;;;;;5028376;28;20084;-60
2023/05/26 10:54:37;;;;;;;18.05;5.30;;;16.60;86.90;;;;;;5025961;28;20033;-60
2023/05/26 10:57:03;;;;;;;21.00;5.63;;;16.40;64.80;;;;;;5026976;28;20037;-60
2023/05/26 10:59:31;;;;;;;20.73;5.80;;;16.40;49.40;;;;;;5026170;28;20037;-60
2023/05/26 11:02:04;;;;;;;22.45;6.13;;;16.40;60.40;;;;;;5027438;28;20159;-60
2023/05/26 11:04:44;;;;;;;24.48;6.40;;;16.40;54.70;;;;;;5023381;28;21108;-60
2023/05/26 11:07:26;;;;;;;22.15;5.85;;;16.30;48.80;;;;;;5037615;28;20249;-60
2023/05/26 11:10:06;;;;;;;20.48;6.10;;;16.30;81.60;;;;;;5035391;28;20113;-60
2023/05/26 11:12:46;;;;;;;26.90;6.07;;;16.30;45.00;;;;;;5029534;28;20503;-60
2023/05/26 11:15:28;;;;;;;25.08;6.40;;;16.20;48.80;;;;;;5023851;28;20475;-60
2023/05/26 11:18:07;;;;;;;19.60;5.50;;;16.10;56.70;;;;;;5027425;28;20060;-60
2023/05/26 11:20:33;;;;;;;27.10;6.57;;;16.30;70.00;;;;;;5020007;28;20048;-60
2023/05/26 11:22:59;;;;;;;23.60;6.15;;;16.30;66.60;;;;;;5027670;28;20037;-60
2023/05/26 11:25:27;;;;;;;24.75;6.28;;;16.20;65.00;;;;;;5021741;28;20541;-58
2023/05/26 11:27:53;;;;;;;24.48;6.25;;;16.20;53.20;;;;;;5023805;28;20044;-58
2023/05/26 11:30:19;;;;;;;22.45;6.15;;;16.30;57.00;;;;;;5024862;28;20754;-59
2023/05/26 11:32:46;;;;;;;21.38;6.43;;;16.40;81.80;;;;;;5026647;28;20091;-59
2023/05/26 11:35:25;;;;;;;18.92;5.72;;;16.50;86.30;;;;;;5026936;28;20044;-58
2023/05/26 11:37:51;;;;;;;23.30;6.80;;;16.60;50.90;;;;;;5028839;28;20124;-58
2023/05/26 11:40:17;;;;;;;29.83;7.45;;;16.70;93.80;;;;;;5025645;28;20038;-59
2023/05/26 11:42:51;;;;;;;21.92;6.40;;;16.90;99.90;;;;;;5026764;28;20395;-58
2023/05/26 11:45:17;;;;;;;32.20;8.48;;;16.70;99.90;;;;;;5025544;28;20065;-58
2023/05/26 11:47:42;;;;;;;23.50;6.65;;;16.60;99.90;;;;;;5027084;28;20096;-58
2023/05/26 11:50:09;;;;;;;28.38;7.75;;;17.70;99.90;;;;;;5020981;28;20464;-59
2023/05/26 11:52:41;;;;;;;25.17;6.65;;;16.50;99.90;;;;;;5024591;28;20041;-58
2023/05/26 11:55:10;;;;;;;27.80;7.63;;;16.40;99.90;;;;;;5024173;28;20029;-59
2023/05/26 11:57:36;;;;;;;28.38;7.53;;;16.20;99.90;;;;;;5024716;28;20044;-58
2023/05/26 12:00:10;;;;;;;37.05;8.38;;;16.20;99.90;;;;;;5026940;28;20044;-58
2023/05/26 12:02:39;;;;;;;35.47;7.55;;;16.00;99.90;;;;;;5026283;28;20037;-59
2023/05/26 12:05:26;;;;;;;31.90;7.82;;;16.00;99.90;;;;;;5026826;28;20029;-58
2023/05/26 12:08:04;;;;;;;;;;;16.00;99.90;;;;;;5025542;28;20037;-59
2023/05/26 12:10:30;;;;;;;27.00;7.65;;;15.80;99.90;;;;;;5022756;28;19943;-58
2023/05/26 12:12:56;;;;;;;26.75;7.63;;;15.90;99.90;;;;;;5025405;28;20045;-58
2023/05/26 12:15:24;;;;;;;35.53;8.68;;;15.90;99.90;;;;;;5025818;28;20041;-58
2023/05/26 12:17:54;;;;;;;29.35;7.75;;;15.90;99.90;;;;;;5019660;28;20495;-60
2023/05/26 12:20:20;;;;;;;49.55;9.32;;;15.80;99.90;;;;;;5025694;28;20072;-59
2023/05/26 12:23:01;;;;;;;30.42;8.10;;;15.70;99.90;;;;;;5027533;28;20128;-59
2023/05/26 12:25:31;;;;;;;43.78;8.65;;;15.70;99.90;;;;;;5008798;28;20050;-59
2023/05/26 12:27:57;;;;;;;30.30;8.90;;;15.70;99.90;;;;;;5029168;28;20037;-61
2023/05/26 12:30:26;;;;;;;94.45;11.98;;;15.60;1.00;;;;;;5031513;28;20610;-62
2023/05/26 12:32:52;;;;;;;32.58;8.18;;;15.70;99.90;;;;;;5031577;28;20041;-61
2023/05/26 12:35:18;;;;;;;30.45;9.00;;;15.70;1.00;;;;;;5031562;28;20100;-60
2023/05/26 12:37:44;;;;;;;27.65;7.60;;;15.80;1.00;;;;;;5032733;28;20030;-61